sensor_id;sensor_type;location;lat;lon;timestamp;P1;durP1;ratioP1;P2;durP2;ratioP2
17662;SDS011;8950;56.892;15.090;2023-05-18T00:00:28;1.95;;;1.17;;
17662;SDS011;8950;56.892;15.090;2023-05-18T00:02:55;1.52;;;1.00;;
17662;SDS011;8950;56.892;15.090;2023-05-18T00:05:22;1.45;;;1.20;;
17662;SDS011;8950;56.892;15.090;2023-05-18T00:07:48;5.30;;;1.30;;
17662;SDS011;8950;56.892;15.090;2023-05-18T00:10:14;1.80;;;1.30;;
17662;SDS011;8950;56.892;15.090;2023-05-18T00:12:41;1.15;;;1.00;;
17662;SDS011;8950;56.892;15.090;2023-05-18T00:15:09;2.72;;;1.23;;
17662;SDS011;8950;56.892;15.090;2023-05-18T00:17:35;3.67;;;1.33;;
17662;SDS011;8950;56.892;15.090;2023-05-18T00:20:02;4.15;;;1.40;;
17662;SDS011;8950;56.892;15.090;2023-05-18T00:22:30;2.90;;;1.40;;
17662;SDS011;8950;56.892;15.090;2023-05-18T00:24:56;2.30;;;1.50;;
17662;SDS011;8950;56.892;15.090;2023-05-18T00:27:23;1.92;;;1.38;;
17662;SDS011;8950;56.892;15.090;2023-05-18T00:29:49;4.13;;;1.30;;
17662;SDS011;8950;56.892;15.090;2023-05-18T00:32:17;2.22;;;1.40;;
17662;SDS011;8950;56.892;15.090;2023-05-18T00:34:43;1.70;;;1.17;;
17662;SDS011;8950;56.892;15.090;2023-05-18T00:37:10;4.10;;;1.60;;
17662;SDS011;8950;56.892;15.090;2023-05-18T00:39:36;2.13;;;1.30;;
17662;SDS011;8950;56.892;15.090;2023-05-18T00:42:03;2.65;;;1.40;;
17662;SDS011;8950;56.892;15.090;2023-05-18T00:44:29;3.80;;;1.40;;
17662;SDS011;8950;56.892;15.090;2023-05-18T00:46:55;2.22;;;1.48;;
17662;SDS011;8950;56.892;15.090;2023-05-18T00:49:25;2.25;;;1.55;;
17662;SDS011;8950;56.892;15.090;2023-05-18T00:51:52;3.33;;;1.40;;
17662;SDS011;8950;56.892;15.090;2023-05-18T00:54:19;4.63;;;1.67;;
17662;SDS011;8950;56.892;15.090;2023-05-18T00:56:46;2.05;;;1.27;;
17662;SDS011;8950;56.892;15.090;2023-05-18T00:59:12;2.45;;;1.33;;
17662;SDS011;8950;56.892;15.090;2023-05-18T01:01:40;2.42;;;1.40;;
17662;SDS011;8950;56.892;15.090;2023-05-18T01:04:08;4.28;;;1.30;;
17662;SDS011;8950;56.892;15.090;2023-05-18T01:06:39;3.17;;;1.60;;
17662;SDS011;8950;56.892;15.090;2023-05-18T01:09:06;3.60;;;1.60;;
17662;SDS011;8950;56.892;15.090;2023-05-18T01:11:37;3.22;;;1.70;;
17662;SDS011;8950;56.892;15.090;2023-05-18T01:14:06;2.80;;;1.55;;
17662;SDS011;8950;56.892;15.090;2023-05-18T01:16:34;2.43;;;1.60;;
17662;SDS011;8950;56.892;15.090;2023-05-18T01:19:05;4.20;;;1.75;;
17662;SDS011;8950;56.892;15.090;2023-05-18T01:21:43;2.72;;;1.63;;
17662;SDS011;8950;56.892;15.090;2023-05-18T01:24:19;3.50;;;1.40;;
17662;SDS011;8950;56.892;15.090;2023-05-18T01:26:51;2.58;;;1.35;;
17662;SDS011;8950;56.892;15.090;2023-05-18T01:29:21;4.13;;;1.60;;
17662;SDS011;8950;56.892;15.090;2023-05-18T01:31:48;1.30;;;1.20;;
17662;SDS011;8950;56.892;15.090;2023-05-18T01:34:14;2.90;;;1.63;;
17662;SDS011;8950;56.892;15.090;2023-05-18T01:36:41;1.90;;;1.40;;
17662;SDS011;8950;56.892;15.090;2023-05-18T01:39:07;3.13;;;1.80;;
17662;SDS011;8950;56.892;15.090;2023-05-18T01:41:36;2.03;;;1.50;;
17662;SDS011;8950;56.892;15.090;2023-05-18T01:44:07;3.15;;;1.60;;
17662;SDS011;8950;56.892;15.090;2023-05-18T01:46:39;3.90;;;1.88;;
17662;SDS011;8950;56.892;15.090;2023-05-18T01:49:10;3.17;;;1.40;;
17662;SDS011;8950;56.892;15.090;2023-05-18T01:51:38;3.95;;;1.70;;
17662;SDS011;8950;56.892;15.090;2023-05-18T01:54:06;6.22;;;1.85;;
17662;SDS011;8950;56.892;15.090;2023-05-18T01:56:33;3.05;;;1.60;;
17662;SDS011;8950;56.892;15.090;2023-05-18T01:59:00;4.15;;;2.00;;
17662;SDS011;8950;56.892;15.090;2023-05-18T02:01:29;3.50;;;1.75;;
17662;SDS011;8950;56.892;15.090;2023-05-18T02:03:55;3.58;;;1.65;;
17662;SDS011;8950;56.892;15.090;2023-05-18T02:06:22;3.42;;;1.70;;
17662;SDS011;8950;56.892;15.090;2023-05-18T02:08:48;2.85;;;1.35;;
17662;SDS011;8950;56.892;15.090;2023-05-18T02:11:14;2.47;;;1.58;;
17662;SDS011;8950;56.892;15.090;2023-05-18T02:13:41;3.63;;;1.50;;
17662;SDS011;8950;56.892;15.090;2023-05-18T02:16:07;3.25;;;1.48;;
17662;SDS011;8950;56.892;15.090;2023-05-18T02:18:36;3.85;;;1.60;;
17662;SDS011;8950;56.892;15.090;2023-05-18T02:21:02;2.90;;;1.50;;
17662;SDS011;8950;56.892;15.090;2023-05-18T02:23:29;5.38;;;1.60;;
17662;SDS011;8950;56.892;15.090;2023-05-18T02:25:55;3.80;;;1.63;;
17662;SDS011;8950;56.892;15.090;2023-05-18T02:28:22;3.08;;;1.52;;
17662;SDS011;8950;56.892;15.090;2023-05-18T02:30:48;3.70;;;1.60;;
17662;SDS011;8950;56.892;15.090;2023-05-18T02:33:15;5.20;;;1.90;;
17662;SDS011;8950;56.892;15.090;2023-05-18T02:35:44;4.03;;;1.65;;
17662;SDS011;8950;56.892;15.090;2023-05-18T02:38:11;4.32;;;1.60;;
17662;SDS011;8950;56.892;15.090;2023-05-18T02:40:37;3.72;;;1.70;;
17662;SDS011;8950;56.892;15.090;2023-05-18T02:43:04;4.70;;;1.83;;
17662;SDS011;8950;56.892;15.090;2023-05-18T02:45:30;4.60;;;1.67;;
17662;SDS011;8950;56.892;15.090;2023-05-18T02:47:56;2.28;;;1.45;;
17662;SDS011;8950;56.892;15.090;2023-05-18T02:50:23;5.18;;;2.00;;
17662;SDS011;8950;56.892;15.090;2023-05-18T02:52:51;4.03;;;2.10;;
17662;SDS011;8950;56.892;15.090;2023-05-18T02:55:17;2.88;;;1.52;;
17662;SDS011;8950;56.892;15.090;2023-05-18T02:57:44;3.03;;;1.60;;
17662;SDS011;8950;56.892;15.090;2023-05-18T03:00:11;5.27;;;1.73;;
17662;SDS011;8950;56.892;15.090;2023-05-18T03:02:40;3.97;;;1.63;;
17662;SDS011;8950;56.892;15.090;2023-05-18T03:05:08;3.95;;;1.83;;
17662;SDS011;8950;56.892;15.090;2023-05-18T03:07:34;3.80;;;1.58;;
17662;SDS011;8950;56.892;15.090;2023-05-18T03:10:02;3.83;;;1.90;;
17662;SDS011;8950;56.892;15.090;2023-05-18T03:12:29;2.10;;;1.50;;
17662;SDS011;8950;56.892;15.090;2023-05-18T03:14:55;2.28;;;1.42;;
17662;SDS011;8950;56.892;15.090;2023-05-18T03:17:21;2.90;;;1.42;;
17662;SDS011;8950;56.892;15.090;2023-05-18T03:19:48;2.20;;;1.40;;
17662;SDS011;8950;56.892;15.090;2023-05-18T03:22:15;3.35;;;1.58;;
17662;SDS011;8950;56.892;15.090;2023-05-18T03:24:41;3.10;;;1.40;;
17662;SDS011;8950;56.892;15.090;2023-05-18T03:27:10;2.20;;;1.42;;
17662;SDS011;8950;56.892;15.090;2023-05-18T03:29:40;2.73;;;1.40;;
17662;SDS011;8950;56.892;15.090;2023-05-18T03:32:06;2.67;;;1.40;;
17662;SDS011;8950;56.892;15.090;2023-05-18T03:34:33;3.05;;;1.40;;
17662;SDS011;8950;56.892;15.090;2023-05-18T03:37:01;5.10;;;1.63;;
17662;SDS011;8950;56.892;15.090;2023-05-18T03:39:28;3.63;;;1.60;;
17662;SDS011;8950;56.892;15.090;2023-05-18T03:41:54;2.50;;;1.60;;
17662;SDS011;8950;56.892;15.090;2023-05-18T03:44:22;3.60;;;1.67;;
17662;SDS011;8950;56.892;15.090;2023-05-18T03:46:49;2.73;;;1.40;;
17662;SDS011;8950;56.892;15.090;2023-05-18T03:49:15;3.72;;;1.58;;
17662;SDS011;8950;56.892;15.090;2023-05-18T03:51:41;3.40;;;1.77;;
17662;SDS011;8950;56.892;15.090;2023-05-18T03:54:08;3.25;;;1.80;;
17662;SDS011;8950;56.892;15.090;2023-05-18T03:56:34;4.70;;;1.67;;
17662;SDS011;8950;56.892;15.090;2023-05-18T03:59:01;3.92;;;1.75;;
17662;SDS011;8950;56.892;15.090;2023-05-18T04:01:28;4.22;;;1.60;;
17662;SDS011;8950;56.892;15.090;2023-05-18T04:03:55;2.30;;;1.67;;
17662;SDS011;8950;56.892;15.090;2023-05-18T04:06:21;2.90;;;1.73;;
17662;SDS011;8950;56.892;15.090;2023-05-18T04:08:50;3.03;;;1.70;;
17662;SDS011;8950;56.892;15.090;2023-05-18T04:11:16;4.05;;;1.50;;
17662;SDS011;8950;56.892;15.090;2023-05-18T04:13:42;2.33;;;1.45;;
17662;SDS011;8950;56.892;15.090;2023-05-18T04:16:09;3.50;;;1.80;;
17662;SDS011;8950;56.892;15.090;2023-05-18T04:18:38;4.13;;;1.83;;
17662;SDS011;8950;56.892;15.090;2023-05-18T04:21:04;2.65;;;1.58;;
17662;SDS011;8950;56.892;15.090;2023-05-18T04:23:31;3.33;;;1.70;;
17662;SDS011;8950;56.892;15.090;2023-05-18T04:26:02;7.65;;;1.92;;
17662;SDS011;8950;56.892;15.090;2023-05-18T04:28:29;4.03;;;1.60;;
17662;SDS011;8950;56.892;15.090;2023-05-18T04:30:55;3.90;;;1.88;;
17662;SDS011;8950;56.892;15.090;2023-05-18T04:33:22;2.13;;;1.50;;
17662;SDS011;8950;56.892;15.090;2023-05-18T04:35:51;5.80;;;1.77;;
17662;SDS011;8950;56.892;15.090;2023-05-18T04:38:19;5.80;;;2.10;;
17662;SDS011;8950;56.892;15.090;2023-05-18T04:40:47;3.10;;;2.10;;
17662;SDS011;8950;56.892;15.090;2023-05-18T04:43:14;4.77;;;1.70;;
17662;SDS011;8950;56.892;15.090;2023-05-18T04:45:41;2.13;;;1.60;;
17662;SDS011;8950;56.892;15.090;2023-05-18T04:48:10;5.50;;;2.27;;
17662;SDS011;8950;56.892;15.090;2023-05-18T04:50:36;4.50;;;2.10;;
17662;SDS011;8950;56.892;15.090;2023-05-18T04:53:05;6.75;;;2.03;;
17662;SDS011;8950;56.892;15.090;2023-05-18T04:55:33;5.78;;;2.22;;
17662;SDS011;8950;56.892;15.090;2023-05-18T04:57:59;4.37;;;2.00;;
17662;SDS011;8950;56.892;15.090;2023-05-18T05:00:27;3.97;;;2.03;;
17662;SDS011;8950;56.892;15.090;2023-05-18T05:02:54;4.30;;;1.87;;
17662;SDS011;8950;56.892;15.090;2023-05-18T05:05:21;5.05;;;2.20;;
17662;SDS011;8950;56.892;15.090;2023-05-18T05:07:48;5.57;;;2.55;;
17662;SDS011;8950;56.892;15.090;2023-05-18T05:10:16;4.97;;;2.40;;
17662;SDS011;8950;56.892;15.090;2023-05-18T05:12:43;7.77;;;2.63;;
17662;SDS011;8950;56.892;15.090;2023-05-18T05:15:09;4.07;;;2.30;;
17662;SDS011;8950;56.892;15.090;2023-05-18T05:17:36;3.90;;;2.30;;
17662;SDS011;8950;56.892;15.090;2023-05-18T05:20:03;5.40;;;2.08;;
17662;SDS011;8950;56.892;15.090;2023-05-18T05:22:30;5.53;;;2.37;;
17662;SDS011;8950;56.892;15.090;2023-05-18T05:24:56;7.65;;;2.53;;
17662;SDS011;8950;56.892;15.090;2023-05-18T05:27:24;10.57;;;2.47;;
17662;SDS011;8950;56.892;15.090;2023-05-18T05:29:50;5.95;;;2.22;;
17662;SDS011;8950;56.892;15.090;2023-05-18T05:32:17;5.82;;;2.20;;
17662;SDS011;8950;56.892;15.090;2023-05-18T05:34:43;5.27;;;2.50;;
17662;SDS011;8950;56.892;15.090;2023-05-18T05:37:12;5.95;;;2.63;;
17662;SDS011;8950;56.892;15.090;2023-05-18T05:39:38;8.75;;;2.63;;
17662;SDS011;8950;56.892;15.090;2023-05-18T05:42:05;4.97;;;1.90;;
17662;SDS011;8950;56.892;15.090;2023-05-18T05:44:33;6.25;;;2.58;;
17662;SDS011;8950;56.892;15.090;2023-05-18T05:47:00;4.82;;;2.15;;
17662;SDS011;8950;56.892;15.090;2023-05-18T05:49:26;6.72;;;2.80;;
17662;SDS011;8950;56.892;15.090;2023-05-18T05:51:52;7.50;;;2.45;;
17662;SDS011;8950;56.892;15.090;2023-05-18T05:54:19;7.47;;;2.45;;
17662;SDS011;8950;56.892;15.090;2023-05-18T05:56:46;8.52;;;2.35;;
17662;SDS011;8950;56.892;15.090;2023-05-18T05:59:12;8.45;;;3.10;;
17662;SDS011;8950;56.892;15.090;2023-05-18T06:01:40;5.95;;;2.30;;
17662;SDS011;8950;56.892;15.090;2023-05-18T06:04:06;11.18;;;2.78;;
17662;SDS011;8950;56.892;15.090;2023-05-18T06:06:35;6.37;;;2.50;;
17662;SDS011;8950;56.892;15.090;2023-05-18T06:09:01;9.25;;;2.78;;
17662;SDS011;8950;56.892;15.090;2023-05-18T06:11:29;7.90;;;2.97;;
17662;SDS011;8950;56.892;15.090;2023-05-18T06:13:55;8.52;;;2.97;;
17662;SDS011;8950;56.892;15.090;2023-05-18T06:16:23;8.33;;;2.60;;
17662;SDS011;8950;56.892;15.090;2023-05-18T06:18:51;10.65;;;3.58;;
17662;SDS011;8950;56.892;15.090;2023-05-18T06:21:18;8.17;;;2.70;;
17662;SDS011;8950;56.892;15.090;2023-05-18T06:23:44;5.57;;;2.22;;
17662;SDS011;8950;56.892;15.090;2023-05-18T06:26:10;8.48;;;2.60;;
17662;SDS011;8950;56.892;15.090;2023-05-18T06:28:37;7.23;;;2.70;;
17662;SDS011;8950;56.892;15.090;2023-05-18T06:31:03;7.93;;;2.78;;
17662;SDS011;8950;56.892;15.090;2023-05-18T06:33:30;6.43;;;2.55;;
17662;SDS011;8950;56.892;15.090;2023-05-18T06:35:58;5.93;;;2.80;;
17662;SDS011;8950;56.892;15.090;2023-05-18T06:38:24;6.20;;;2.50;;
17662;SDS011;8950;56.892;15.090;2023-05-18T06:40:51;4.95;;;2.53;;
17662;SDS011;8950;56.892;15.090;2023-05-18T06:43:17;6.18;;;2.38;;
17662;SDS011;8950;56.892;15.090;2023-05-18T06:45:44;7.93;;;2.80;;
17662;SDS011;8950;56.892;15.090;2023-05-18T06:48:11;7.28;;;2.67;;
17662;SDS011;8950;56.892;15.090;2023-05-18T06:50:37;7.10;;;2.58;;
17662;SDS011;8950;56.892;15.090;2023-05-18T06:53:05;7.50;;;2.42;;
17662;SDS011;8950;56.892;15.090;2023-05-18T06:55:32;5.25;;;2.30;;
17662;SDS011;8950;56.892;15.090;2023-05-18T06:57:58;9.55;;;2.95;;
17662;SDS011;8950;56.892;15.090;2023-05-18T07:00:25;8.32;;;2.60;;
17662;SDS011;8950;56.892;15.090;2023-05-18T07:02:51;6.57;;;2.83;;
17662;SDS011;8950;56.892;15.090;2023-05-18T07:05:18;6.70;;;2.85;;
17662;SDS011;8950;56.892;15.090;2023-05-18T07:07:44;7.07;;;2.50;;
17662;SDS011;8950;56.892;15.090;2023-05-18T07:10:13;6.55;;;2.60;;
17662;SDS011;8950;56.892;15.090;2023-05-18T07:12:39;7.95;;;2.42;;
17662;SDS011;8950;56.892;15.090;2023-05-18T07:15:06;5.07;;;2.63;;
17662;SDS011;8950;56.892;15.090;2023-05-18T07:17:33;7.90;;;2.67;;
17662;SDS011;8950;56.892;15.090;2023-05-18T07:19:59;5.83;;;2.70;;
17662;SDS011;8950;56.892;15.090;2023-05-18T07:22:26;6.18;;;2.55;;
17662;SDS011;8950;56.892;15.090;2023-05-18T07:24:53;6.32;;;2.45;;
17662;SDS011;8950;56.892;15.090;2023-05-18T07:27:21;7.93;;;2.20;;
17662;SDS011;8950;56.892;15.090;2023-05-18T07:29:48;6.03;;;2.60;;
17662;SDS011;8950;56.892;15.090;2023-05-18T07:32:14;10.57;;;3.05;;
17662;SDS011;8950;56.892;15.090;2023-05-18T07:34:41;7.80;;;2.67;;
17662;SDS011;8950;56.892;15.090;2023-05-18T07:37:07;5.38;;;2.30;;
17662;SDS011;8950;56.892;15.090;2023-05-18T07:39:33;8.90;;;3.05;;
17662;SDS011;8950;56.892;15.090;2023-05-18T07:42:00;8.13;;;2.65;;
17662;SDS011;8950;56.892;15.090;2023-05-18T07:44:28;8.45;;;2.80;;
17662;SDS011;8950;56.892;15.090;2023-05-18T07:46:54;7.88;;;2.75;;
17662;SDS011;8950;56.892;15.090;2023-05-18T07:49:21;7.95;;;2.70;;
17662;SDS011;8950;56.892;15.090;2023-05-18T07:51:48;3.80;;;2.40;;
17662;SDS011;8950;56.892;15.090;2023-05-18T07:54:15;5.32;;;2.75;;
17662;SDS011;8950;56.892;15.090;2023-05-18T07:56:41;8.10;;;2.25;;
17662;SDS011;8950;56.892;15.090;2023-05-18T07:59:08;5.90;;;2.33;;
17662;SDS011;8950;56.892;15.090;2023-05-18T08:01:36;6.90;;;2.85;;
17662;SDS011;8950;56.892;15.090;2023-05-18T08:04:03;5.20;;;2.60;;
17662;SDS011;8950;56.892;15.090;2023-05-18T08:06:30;4.80;;;2.60;;
17662;SDS011;8950;56.892;15.090;2023-05-18T08:08:56;7.53;;;2.78;;
17662;SDS011;8950;56.892;15.090;2023-05-18T08:11:23;8.63;;;2.42;;
17662;SDS011;8950;56.892;15.090;2023-05-18T08:13:49;5.40;;;2.50;;
17662;SDS011;8950;56.892;15.090;2023-05-18T08:16:16;6.97;;;2.60;;
17662;SDS011;8950;56.892;15.090;2023-05-18T08:18:44;4.00;;;2.63;;
17662;SDS011;8950;56.892;15.090;2023-05-18T08:21:10;7.40;;;2.50;;
17662;SDS011;8950;56.892;15.090;2023-05-18T08:23:37;7.38;;;2.33;;
17662;SDS011;8950;56.892;15.090;2023-05-18T08:26:04;7.13;;;2.45;;
17662;SDS011;8950;56.892;15.090;2023-05-18T08:28:32;7.28;;;2.97;;
17662;SDS011;8950;56.892;15.090;2023-05-18T08:30:58;4.90;;;2.70;;
17662;SDS011;8950;56.892;15.090;2023-05-18T08:33:25;5.32;;;2.40;;
17662;SDS011;8950;56.892;15.090;2023-05-18T08:35:52;7.07;;;2.75;;
17662;SDS011;8950;56.892;15.090;2023-05-18T08:38:19;8.97;;;2.60;;
17662;SDS011;8950;56.892;15.090;2023-05-18T08:40:49;3.47;;;2.08;;
17662;SDS011;8950;56.892;15.090;2023-05-18T08:43:19;4.57;;;2.35;;
17662;SDS011;8950;56.892;15.090;2023-05-18T08:45:47;7.90;;;2.80;;
17662;SDS011;8950;56.892;15.090;2023-05-18T08:48:15;6.13;;;2.53;;
17662;SDS011;8950;56.892;15.090;2023-05-18T08:50:41;4.18;;;1.92;;
17662;SDS011;8950;56.892;15.090;2023-05-18T08:53:10;6.07;;;2.53;;
17662;SDS011;8950;56.892;15.090;2023-05-18T08:55:37;5.15;;;2.70;;
17662;SDS011;8950;56.892;15.090;2023-05-18T08:58:06;6.35;;;2.75;;
17662;SDS011;8950;56.892;15.090;2023-05-18T09:00:34;5.47;;;2.70;;
17662;SDS011;8950;56.892;15.090;2023-05-18T09:03:01;6.15;;;2.35;;
17662;SDS011;8950;56.892;15.090;2023-05-18T09:05:29;7.63;;;2.67;;
17662;SDS011;8950;56.892;15.090;2023-05-18T09:07:55;5.88;;;2.22;;
17662;SDS011;8950;56.892;15.090;2023-05-18T09:10:26;7.60;;;2.70;;
17662;SDS011;8950;56.892;15.090;2023-05-18T09:12:53;7.77;;;2.80;;
17662;SDS011;8950;56.892;15.090;2023-05-18T09:15:19;6.32;;;2.67;;
17662;SDS011;8950;56.892;15.090;2023-05-18T09:17:49;3.95;;;2.47;;
17662;SDS011;8950;56.892;15.090;2023-05-18T09:20:15;7.38;;;2.30;;
17662;SDS011;8950;56.892;15.090;2023-05-18T09:22:42;6.57;;;2.05;;
17662;SDS011;8950;56.892;15.090;2023-05-18T09:25:09;5.38;;;2.20;;
17662;SDS011;8950;56.892;15.090;2023-05-18T09:27:37;6.38;;;2.55;;
17662;SDS011;8950;56.892;15.090;2023-05-18T09:30:04;6.35;;;2.30;;
17662;SDS011;8950;56.892;15.090;2023-05-18T09:32:35;5.65;;;2.40;;
17662;SDS011;8950;56.892;15.090;2023-05-18T09:35:05;5.40;;;2.47;;
17662;SDS011;8950;56.892;15.090;2023-05-18T09:37:32;4.47;;;2.63;;
17662;SDS011;8950;56.892;15.090;2023-05-18T09:39:59;5.22;;;2.05;;
17662;SDS011;8950;56.892;15.090;2023-05-18T09:42:33;5.43;;;2.22;;
17662;SDS011;8950;56.892;15.090;2023-05-18T09:45:02;6.00;;;2.58;;
17662;SDS011;8950;56.892;15.090;2023-05-18T09:47:29;8.23;;;2.65;;
17662;SDS011;8950;56.892;15.090;2023-05-18T09:49:55;6.30;;;2.97;;
17662;SDS011;8950;56.892;15.090;2023-05-18T09:52:22;7.15;;;2.53;;
17662;SDS011;8950;56.892;15.090;2023-05-18T09:54:52;5.38;;;2.20;;
17662;SDS011;8950;56.892;15.090;2023-05-18T09:57:22;9.18;;;2.58;;
17662;SDS011;8950;56.892;15.090;2023-05-18T09:59:53;4.85;;;2.20;;
17662;SDS011;8950;56.892;15.090;2023-05-18T10:02:22;7.93;;;2.60;;
17662;SDS011;8950;56.892;15.090;2023-05-18T10:04:50;5.45;;;1.98;;
17662;SDS011;8950;56.892;15.090;2023-05-18T10:07:16;5.25;;;2.30;;
17662;SDS011;8950;56.892;15.090;2023-05-18T10:09:43;2.70;;;2.00;;
17662;SDS011;8950;56.892;15.090;2023-05-18T10:12:10;5.80;;;2.15;;
17662;SDS011;8950;56.892;15.090;2023-05-18T10:14:38;4.53;;;2.30;;
17662;SDS011;8950;56.892;15.090;2023-05-18T10:17:05;5.00;;;2.17;;
17662;SDS011;8950;56.892;15.090;2023-05-18T10:19:33;5.88;;;2.47;;
17662;SDS011;8950;56.892;15.090;2023-05-18T10:22:00;6.73;;;2.60;;
17662;SDS011;8950;56.892;15.090;2023-05-18T10:24:28;3.05;;;2.10;;
17662;SDS011;8950;56.892;15.090;2023-05-18T10:26:55;7.72;;;2.53;;
17662;SDS011;8950;56.892;15.090;2023-05-18T10:29:23;5.13;;;2.42;;
17662;SDS011;8950;56.892;15.090;2023-05-18T10:31:49;7.13;;;2.70;;
17662;SDS011;8950;56.892;15.090;2023-05-18T10:34:18;5.87;;;2.40;;
17662;SDS011;8950;56.892;15.090;2023-05-18T10:36:48;4.33;;;2.20;;
17662;SDS011;8950;56.892;15.090;2023-05-18T10:39:14;4.72;;;2.00;;
17662;SDS011;8950;56.892;15.090;2023-05-18T10:41:41;4.40;;;2.55;;
17662;SDS011;8950;56.892;15.090;2023-05-18T10:44:09;3.33;;;2.22;;
17662;SDS011;8950;56.892;15.090;2023-05-18T10:46:35;4.15;;;2.20;;
17662;SDS011;8950;56.892;15.090;2023-05-18T10:49:02;5.03;;;2.08;;
17662;SDS011;8950;56.892;15.090;2023-05-18T10:51:29;4.13;;;1.93;;
17662;SDS011;8950;56.892;15.090;2023-05-18T10:54:00;4.13;;;2.20;;
17662;SDS011;8950;56.892;15.090;2023-05-18T10:56:29;4.43;;;2.30;;
17662;SDS011;8950;56.892;15.090;2023-05-18T10:58:56;7.13;;;2.40;;
17662;SDS011;8950;56.892;15.090;2023-05-18T11:01:22;14.52;;;3.08;;
17662;SDS011;8950;56.892;15.090;2023-05-18T11:03:49;8.40;;;2.17;;
17662;SDS011;8950;56.892;15.090;2023-05-18T11:06:15;7.35;;;2.70;;
17662;SDS011;8950;56.892;15.090;2023-05-18T11:08:49;4.25;;;2.60;;
17662;SDS011;8950;56.892;15.090;2023-05-18T11:11:17;6.07;;;2.25;;
17662;SDS011;8950;56.892;15.090;2023-05-18T11:13:48;5.03;;;1.85;;
17662;SDS011;8950;56.892;15.090;2023-05-18T11:16:15;5.43;;;1.90;;
17662;SDS011;8950;56.892;15.090;2023-05-18T11:18:43;5.00;;;2.20;;
17662;SDS011;8950;56.892;15.090;2023-05-18T11:21:20;5.18;;;2.22;;
17662;SDS011;8950;56.892;15.090;2023-05-18T11:26:32;3.65;;;2.35;;
17662;SDS011;8950;56.892;15.090;2023-05-18T11:29:06;3.92;;;2.30;;
17662;SDS011;8950;56.892;15.090;2023-05-18T11:31:44;3.22;;;1.85;;
17662;SDS011;8950;56.892;15.090;2023-05-18T11:36:56;5.28;;;1.90;;
17662;SDS011;8950;56.892;15.090;2023-05-18T11:39:22;3.30;;;1.85;;
17662;SDS011;8950;56.892;15.090;2023-05-18T11:41:59;4.93;;;2.20;;
17662;SDS011;8950;56.892;15.090;2023-05-18T11:44:26;3.85;;;2.05;;
17662;SDS011;8950;56.892;15.090;2023-05-18T11:46:54;5.72;;;2.42;;
17662;SDS011;8950;56.892;15.090;2023-05-18T11:49:21;4.03;;;1.90;;
17662;SDS011;8950;56.892;15.090;2023-05-18T11:51:55;3.78;;;2.28;;
17662;SDS011;8950;56.892;15.090;2023-05-18T11:54:22;4.40;;;2.15;;
17662;SDS011;8950;56.892;15.090;2023-05-18T11:56:49;4.30;;;2.20;;
17662;SDS011;8950;56.892;15.090;2023-05-18T11:59:27;4.88;;;2.13;;
17662;SDS011;8950;56.892;15.090;2023-05-18T12:01:55;6.18;;;2.20;;
17662;SDS011;8950;56.892;15.090;2023-05-18T12:04:22;4.38;;;1.80;;
17662;SDS011;8950;56.892;15.090;2023-05-18T12:06:48;4.82;;;2.10;;
17662;SDS011;8950;56.892;15.090;2023-05-18T12:09:16;5.22;;;2.47;;
17662;SDS011;8950;56.892;15.090;2023-05-18T12:11:43;4.68;;;2.10;;
17662;SDS011;8950;56.892;15.090;2023-05-18T12:14:10;4.32;;;2.17;;
17662;SDS011;8950;56.892;15.090;2023-05-18T12:16:37;2.75;;;1.92;;
17662;SDS011;8950;56.892;15.090;2023-05-18T12:19:05;3.10;;;2.10;;
17662;SDS011;8950;56.892;15.090;2023-05-18T12:21:33;3.70;;;2.40;;
17662;SDS011;8950;56.892;15.090;2023-05-18T12:24:00;4.82;;;2.10;;
17662;SDS011;8950;56.892;15.090;2023-05-18T12:26:26;3.50;;;2.13;;
17662;SDS011;8950;56.892;15.090;2023-05-18T12:28:53;5.20;;;2.00;;
17662;SDS011;8950;56.892;15.090;2023-05-18T12:31:20;6.03;;;2.15;;
17662;SDS011;8950;56.892;15.090;2023-05-18T12:33:48;4.72;;;1.90;;
17662;SDS011;8950;56.892;15.090;2023-05-18T12:36:15;4.88;;;2.35;;
17662;SDS011;8950;56.892;15.090;2023-05-18T12:38:42;4.45;;;2.10;;
17662;SDS011;8950;56.892;15.090;2023-05-18T12:41:09;3.72;;;1.90;;
17662;SDS011;8950;56.892;15.090;2023-05-18T12:43:35;4.60;;;2.13;;
17662;SDS011;8950;56.892;15.090;2023-05-18T12:46:02;5.00;;;2.00;;
17662;SDS011;8950;56.892;15.090;2023-05-18T12:48:34;2.83;;;2.00;;
17662;SDS011;8950;56.892;15.090;2023-05-18T12:51:02;4.32;;;1.98;;
17662;SDS011;8950;56.892;15.090;2023-05-18T12:53:38;4.13;;;1.95;;
17662;SDS011;8950;56.892;15.090;2023-05-18T12:56:05;3.97;;;2.10;;
17662;SDS011;8950;56.892;15.090;2023-05-18T12:58:33;4.40;;;2.17;;
17662;SDS011;8950;56.892;15.090;2023-05-18T13:01:05;5.10;;;2.30;;
17662;SDS011;8950;56.892;15.090;2023-05-18T13:03:32;3.67;;;2.00;;
17662;SDS011;8950;56.892;15.090;2023-05-18T13:06:03;6.78;;;2.20;;
17662;SDS011;8950;56.892;15.090;2023-05-18T13:08:30;4.68;;;2.47;;
17662;SDS011;8950;56.892;15.090;2023-05-18T13:10:59;5.00;;;2.25;;
17662;SDS011;8950;56.892;15.090;2023-05-18T13:13:25;4.22;;;2.22;;
17662;SDS011;8950;56.892;15.090;2023-05-18T13:15:52;5.13;;;2.33;;
17662;SDS011;8950;56.892;15.090;2023-05-18T13:18:18;4.75;;;2.20;;
17662;SDS011;8950;56.892;15.090;2023-05-18T13:20:45;6.15;;;2.30;;
17662;SDS011;8950;56.892;15.090;2023-05-18T13:23:15;5.20;;;2.50;;
17662;SDS011;8950;56.892;15.090;2023-05-18T13:25:42;3.38;;;1.90;;
17662;SDS011;8950;56.892;15.090;2023-05-18T13:28:09;5.05;;;2.13;;
17662;SDS011;8950;56.892;15.090;2023-05-18T13:30:36;4.88;;;3.35;;
17662;SDS011;8950;56.892;15.090;2023-05-18T13:33:02;6.90;;;3.50;;
17662;SDS011;8950;56.892;15.090;2023-05-18T13:35:29;6.40;;;2.60;;
17662;SDS011;8950;56.892;15.090;2023-05-18T13:37:55;3.40;;;2.20;;
17662;SDS011;8950;56.892;15.090;2023-05-18T13:40:23;3.95;;;2.10;;
17662;SDS011;8950;56.892;15.090;2023-05-18T13:42:49;3.22;;;2.00;;
17662;SDS011;8950;56.892;15.090;2023-05-18T13:45:16;4.95;;;2.30;;
17662;SDS011;8950;56.892;15.090;2023-05-18T13:47:42;3.50;;;2.33;;
17662;SDS011;8950;56.892;15.090;2023-05-18T13:50:14;5.65;;;2.60;;
17662;SDS011;8950;56.892;15.090;2023-05-18T13:52:40;4.97;;;2.05;;
17662;SDS011;8950;56.892;15.090;2023-05-18T13:55:07;5.53;;;2.20;;
17662;SDS011;8950;56.892;15.090;2023-05-18T13:57:35;4.85;;;2.88;;
17662;SDS011;8950;56.892;15.090;2023-05-18T14:00:02;4.30;;;2.30;;
17662;SDS011;8950;56.892;15.090;2023-05-18T14:02:34;3.45;;;2.08;;
17662;SDS011;8950;56.892;15.090;2023-05-18T14:05:01;5.43;;;3.67;;
17662;SDS011;8950;56.892;15.090;2023-05-18T14:07:27;7.10;;;2.72;;
17662;SDS011;8950;56.892;15.090;2023-05-18T14:09:54;4.70;;;2.72;;
17662;SDS011;8950;56.892;15.090;2023-05-18T14:12:20;6.22;;;3.17;;
17662;SDS011;8950;56.892;15.090;2023-05-18T14:14:48;4.28;;;2.13;;
17662;SDS011;8950;56.892;15.090;2023-05-18T14:17:14;6.15;;;3.55;;
17662;SDS011;8950;56.892;15.090;2023-05-18T14:19:40;5.28;;;3.58;;
17662;SDS011;8950;56.892;15.090;2023-05-18T14:22:07;7.38;;;4.53;;
17662;SDS011;8950;56.892;15.090;2023-05-18T14:24:33;4.63;;;2.13;;
17662;SDS011;8950;56.892;15.090;2023-05-18T14:27:00;5.75;;;3.78;;
17662;SDS011;8950;56.892;15.090;2023-05-18T14:29:26;4.03;;;2.22;;
17662;SDS011;8950;56.892;15.090;2023-05-18T14:31:54;4.03;;;1.73;;
17662;SDS011;8950;56.892;15.090;2023-05-18T14:34:20;4.75;;;2.28;;
17662;SDS011;8950;56.892;15.090;2023-05-18T14:36:47;5.45;;;3.53;;
17662;SDS011;8950;56.892;15.090;2023-05-18T14:39:13;6.30;;;2.47;;
17662;SDS011;8950;56.892;15.090;2023-05-18T14:41:40;7.53;;;3.70;;
17662;SDS011;8950;56.892;15.090;2023-05-18T14:44:06;4.90;;;2.63;;
17662;SDS011;8950;56.892;15.090;2023-05-18T14:46:34;3.15;;;2.00;;
17662;SDS011;8950;56.892;15.090;2023-05-18T14:49:01;4.75;;;3.15;;
17662;SDS011;8950;56.892;15.090;2023-05-18T14:51:28;3.85;;;2.75;;
17662;SDS011;8950;56.892;15.090;2023-05-18T14:53:54;3.80;;;2.03;;